• Join FlightAware (Why Join?)
  • Login
  • US Flag 
12:11AM EDT


 

Airport Tracker/Info


-or-


 

Live Flight TrackerFlight Track Log ✈ UAL3842 ✈ 24-Jul-2013 ✈ KORD - KCRW

Flight Track Log - Related Links

Times and Time Zones

All times are in EDT time to prevent confusion due to time zone crossing. See the UAL3842 flight status page for this flight to view local times or setup timezone preferences in your user account.

Time Position Orientation Groundspeed Altitude Reporting Facility
EDT Latitude Longitude Course Direction KTS MPH feet Rate Location/Type
10:50PM 42.0000 -87.9667 251° West 172 198 3,300  Level Chicago TRACON
10:51PM 41.9833 -88.0333 251° West 255 293 4,800 840 Climbing Chicago TRACON
10:52PM 41.9167 -88.0000 160° South 275 316 5,000 180 Climbing Chicago TRACON
10:54PM 41.8328 -87.9100 141° Southeast 278 320 5,300 1,260 Climbing Chicago Center
10:55PM 41.7772 -87.8406 137° Southeast 276 318 8,200 2,460 Climbing Chicago Center
10:56PM 41.7172 -87.7661 137° Southeast 288 331 10,400 2,280 Climbing Chicago Center
10:57PM 41.6386 -87.7083 151° Southeast 322 371 12,900 1,800 Climbing Chicago Center
10:58PM 41.5536 -87.6536 154° Southeast 337 388 14,200 1,020 Climbing Chicago Center
10:59PM 41.4528 -87.6022 159° South 384 442 15,000 840 Climbing Chicago Center
11:00PM 41.3419 -87.5719 168° South 403 464 16,000 1,020 Climbing Chicago Center
11:01PM 41.2269 -87.5406 168° South 415 478 17,100 1,140 Climbing Chicago Center
11:02PM 41.1114 -87.5092 168° South 421 484 18,400 1,680 Climbing Chicago Center
11:03PM 40.9747 -87.4725 169° South 420 483 20,600 1,860 Climbing Chicago Center
11:04PM 40.8594 -87.4400 168° South 423 487 22,300 1,500 Climbing Chicago Center
11:05PM 40.7439 -87.4125 170° South 422 486 23,700 1,320 Climbing Chicago Center
11:06PM 40.6253 -87.3806 168° South 433 498 25,000 1,260 Climbing Chicago Center
11:07PM 40.5292 -87.2886 144° Southeast 436 502 26,400 1,380 Climbing Chicago Center
11:08PM 40.4789 -87.1464 115° Southeast 436 502 27,900 1,620 Climbing Chicago Center
11:09PM 40.4222 -86.9858 115° Southeast 427 491 29,700 1,500 Climbing Chicago Center
11:10PM 40.3736 -86.8436 114° Southeast 429 494 31,000 600 Climbing Chicago Center
11:11PM 40.3197 -86.6919 115° Southeast 461 531 31,000  Level Chicago Center
11:12PM 40.2644 -86.5328 114° Southeast 483 556 31,000  Level Chicago Center
11:13PM 40.2072 -86.3717 115° Southeast 485 558 31,000  Level Chicago Center
11:14PM 40.1494 -86.2075 115° Southeast 493 567 31,000  Level Chicago Center
11:15PM 40.1033 -86.0797 115° Southeast 484 557 31,000  Level Indianapolis Center
11:16PM 40.0483 -85.9217 114° Southeast 478 550 31,000  Level Indianapolis Center
11:17PM 39.9903 -85.7658 116° Southeast 474 545 31,000  Level Indianapolis Center
11:18PM 39.9342 -85.6100 115° Southeast 474 545 31,000  Level Indianapolis Center
11:19PM 39.8667 -85.4256 115° Southeast 472 543 31,000  Level Indianapolis Center
11:20PM 39.8108 -85.2714 115° Southeast 472 543 31,000  Level Indianapolis Center
11:21PM 39.7553 -85.1189 115° Southeast 469 540 31,000  Level Indianapolis Center
11:22PM 39.6978 -84.9653 116° Southeast 471 542 31,000  Level Indianapolis Center
11:23PM 39.6439 -84.8208 116° Southeast 473 544 31,000  Level Indianapolis Center
11:24PM 39.5869 -84.6661 115° Southeast 474 545 31,000  Level Indianapolis Center
11:25PM 39.5181 -84.4822 116° Southeast 480 552 31,000  Level Indianapolis Center
11:26PM 39.4575 -84.3264 117° Southeast 483 556 31,000  Level Indianapolis Center
11:27PM 39.4006 -84.1703 115° Southeast 480 552 31,000  Level Indianapolis Center
11:28PM 39.3408 -84.0147 116° Southeast 482 555 31,100  Climbing Indianapolis Center
11:29PM 39.2800 -83.8578 117° Southeast 485 558 31,000 -60 Descending Indianapolis Center
11:30PM 39.2197 -83.7014 116° Southeast 487 560 31,000  Level Indianapolis Center
11:31PM 39.1600 -83.5450 116° Southeast 485 558 31,000 -120 Level Indianapolis Center
11:32PM 39.0983 -83.3903 117° Southeast 485 558 30,800 -1,260 Descending Indianapolis Center
11:33PM 39.0397 -83.2397 117° Southeast 472 543 28,500 -2,400 Descending Indianapolis Center
11:34PM 38.9842 -83.0964 116° Southeast 466 536 26,000 -2,580 Descending Indianapolis Center
11:35PM 38.9253 -82.9489 117° Southeast 465 535 23,300 -2,640 Descending Indianapolis Center
11:36PM 38.8697 -82.8067 117° Southeast 449 517 20,700 -2,460 Descending Indianapolis Center
11:37PM 38.8042 -82.6439 117° Southeast 431 496 18,300 -2,340 Descending Indianapolis Center
11:38PM 38.7506 -82.5114 117° Southeast 422 486 16,000 -2,400 Descending Indianapolis Center
11:39PM 38.6997 -82.3856 117° Southeast 403 464 13,500 -2,280 Descending Indianapolis Center
11:40PM 38.6503 -82.2617 117° Southeast 394 453 11,400 -1,260 Descending Indianapolis Center
11:41PM 38.6233 -82.1336 105° East 380 437 11,000 -240 Descending Indianapolis Center
11:42PM 38.6017 -82.0028 102° East 378 435 11,000 -420 Level Indianapolis Center
11:43PM 38.5833 -81.8881 102° East 323 372 10,200 -1,140 Descending Indianapolis Center
11:44PM 38.5669 -81.7867 102° East 296 341 8,700 -1,680 Descending Indianapolis Center
11:45PM 38.5522 -81.6942 101° East 272 313 6,900 -1,860 Descending Indianapolis Center
11:46PM 38.5372 -81.6069 102° East 259 298 5,000 -1,920 Descending Indianapolis Center